sensor_id;sensor_type;location;lat;lon;timestamp;temperature;humidity
7738;DHT22;29398;45.328;5.558;2022-12-07T00:00:27;4.50;99.90
7738;DHT22;29398;45.328;5.558;2022-12-07T00:01:30;4.50;99.90
7738;DHT22;29398;45.328;5.558;2022-12-07T00:02:32;4.50;99.90
7738;DHT22;29398;45.328;5.558;2022-12-07T00:03:33;4.50;99.90
7738;DHT22;29398;45.328;5.558;2022-12-07T00:04:36;4.50;99.90
7738;DHT22;29398;45.328;5.558;2022-12-07T00:05:38;4.50;99.90
7738;DHT22;29398;45.328;5.558;2022-12-07T00:06:42;4.60;99.90
7738;DHT22;29398;45.328;5.558;2022-12-07T00:07:44;4.60;99.90
7738;DHT22;29398;45.328;5.558;2022-12-07T00:08:46;4.60;99.90
7738;DHT22;29398;45.328;5.558;2022-12-07T00:09:48;4.60;99.90
7738;DHT22;29398;45.328;5.558;2022-12-07T00:10:50;4.50;99.90
7738;DHT22;29398;45.328;5.558;2022-12-07T00:11:51;4.50;99.90
7738;DHT22;29398;45.328;5.558;2022-12-07T00:12:54;4.50;99.90
7738;DHT22;29398;45.328;5.558;2022-12-07T00:13:56;4.50;99.90
7738;DHT22;29398;45.328;5.558;2022-12-07T00:14:59;4.40;99.90
7738;DHT22;29398;45.328;5.558;2022-12-07T00:16:01;4.50;99.90
7738;DHT22;29398;45.328;5.558;2022-12-07T00:17:04;4.40;99.90
7738;DHT22;29398;45.328;5.558;2022-12-07T00:18:05;4.40;99.90
7738;DHT22;29398;45.328;5.558;2022-12-07T00:19:08;4.50;99.90
7738;DHT22;29398;45.328;5.558;2022-12-07T00:20:10;4.50;99.90
7738;DHT22;29398;45.328;5.558;2022-12-07T00:21:15;4.50;99.90
7738;DHT22;29398;45.328;5.558;2022-12-07T00:22:16;4.50;99.90
7738;DHT22;29398;45.328;5.558;2022-12-07T00:23:18;4.50;99.90
7738;DHT22;29398;45.328;5.558;2022-12-07T00:24:19;4.60;99.90
7738;DHT22;29398;45.328;5.558;2022-12-07T00:25:22;4.60;99.90
7738;DHT22;29398;45.328;5.558;2022-12-07T00:26:24;4.60;99.90
7738;DHT22;29398;45.328;5.558;2022-12-07T00:27:27;4.40;99.90
7738;DHT22;29398;45.328;5.558;2022-12-07T00:28:28;4.40;99.90
7738;DHT22;29398;45.328;5.558;2022-12-07T00:29:30;4.30;99.90
7738;DHT22;29398;45.328;5.558;2022-12-07T00:31:36;4.30;99.90
7738;DHT22;29398;45.328;5.558;2022-12-07T00:32:39;4.30;99.90
7738;DHT22;29398;45.328;5.558;2022-12-07T00:33:41;4.40;99.90
7738;DHT22;29398;45.328;5.558;2022-12-07T00:34:42;4.40;99.90
7738;DHT22;29398;45.328;5.558;2022-12-07T00:35:44;4.30;99.90
7738;DHT22;29398;45.328;5.558;2022-12-07T00:36:47;4.30;99.90
7738;DHT22;29398;45.328;5.558;2022-12-07T00:37:49;4.30;99.90
7738;DHT22;29398;45.328;5.558;2022-12-07T00:38:52;4.30;99.90
7738;DHT22;29398;45.328;5.558;2022-12-07T00:39:53;4.30;99.90
7738;DHT22;29398;45.328;5.558;2022-12-07T00:40:56;4.30;99.90
7738;DHT22;29398;45.328;5.558;2022-12-07T00:41:57;4.30;99.90
7738;DHT22;29398;45.328;5.558;2022-12-07T00:42:59;4.30;99.90
7738;DHT22;29398;45.328;5.558;2022-12-07T00:44:01;4.30;99.90
7738;DHT22;29398;45.328;5.558;2022-12-07T00:45:03;4.20;99.90
7738;DHT22;29398;45.328;5.558;2022-12-07T00:46:05;4.20;99.90
7738;DHT22;29398;45.328;5.558;2022-12-07T00:47:07;4.20;99.90
7738;DHT22;29398;45.328;5.558;2022-12-07T00:48:09;4.20;99.90
7738;DHT22;29398;45.328;5.558;2022-12-07T00:49:10;4.20;99.90
7738;DHT22;29398;45.328;5.558;2022-12-07T00:50:12;4.20;99.90
7738;DHT22;29398;45.328;5.558;2022-12-07T00:51:15;4.20;99.90
7738;DHT22;29398;45.328;5.558;2022-12-07T00:52:18;4.20;99.90
7738;DHT22;29398;45.328;5.558;2022-12-07T00:53:21;4.10;99.90
7738;DHT22;29398;45.328;5.558;2022-12-07T00:54:22;4.10;99.90
7738;DHT22;29398;45.328;5.558;2022-12-07T00:55:24;4.10;99.90
7738;DHT22;29398;45.328;5.558;2022-12-07T00:56:27;4.20;99.90
7738;DHT22;29398;45.328;5.558;2022-12-07T00:57:30;4.10;99.90
7738;DHT22;29398;45.328;5.558;2022-12-07T00:58:31;4.20;99.90
7738;DHT22;29398;45.328;5.558;2022-12-07T00:59:34;4.20;99.90
7738;DHT22;29398;45.328;5.558;2022-12-07T01:00:36;4.20;99.90
7738;DHT22;29398;45.328;5.558;2022-12-07T01:01:39;4.20;99.90
7738;DHT22;29398;45.328;5.558;2022-12-07T01:02:41;4.20;99.90
7738;DHT22;29398;45.328;5.558;2022-12-07T01:03:42;4.20;99.90
7738;DHT22;29398;45.328;5.558;2022-12-07T01:04:44;4.20;99.90
7738;DHT22;29398;45.328;5.558;2022-12-07T01:05:52;4.10;99.90
7738;DHT22;29398;45.328;5.558;2022-12-07T01:06:55;4.10;99.90
7738;DHT22;29398;45.328;5.558;2022-12-07T01:07:57;4.20;99.90
7738;DHT22;29398;45.328;5.558;2022-12-07T01:09:00;4.10;99.90
7738;DHT22;29398;45.328;5.558;2022-12-07T01:10:01;4.10;99.90
7738;DHT22;29398;45.328;5.558;2022-12-07T01:11:05;4.20;99.90
7738;DHT22;29398;45.328;5.558;2022-12-07T01:12:06;4.10;99.90
7738;DHT22;29398;45.328;5.558;2022-12-07T01:13:09;4.20;99.90
7738;DHT22;29398;45.328;5.558;2022-12-07T01:14:10;4.10;99.90
7738;DHT22;29398;45.328;5.558;2022-12-07T01:15:12;4.10;99.90
7738;DHT22;29398;45.328;5.558;2022-12-07T01:16:15;4.10;99.90
7738;DHT22;29398;45.328;5.558;2022-12-07T01:17:17;4.10;99.90
7738;DHT22;29398;45.328;5.558;2022-12-07T01:18:18;4.10;99.90
7738;DHT22;29398;45.328;5.558;2022-12-07T01:19:20;4.10;99.90
7738;DHT22;29398;45.328;5.558;2022-12-07T01:20:22;4.10;99.90
7738;DHT22;29398;45.328;5.558;2022-12-07T01:21:25;4.10;99.90
7738;DHT22;29398;45.328;5.558;2022-12-07T01:22:27;4.10;99.90
7738;DHT22;29398;45.328;5.558;2022-12-07T01:23:31;4.10;99.90
7738;DHT22;29398;45.328;5.558;2022-12-07T01:24:33;4.10;99.90
7738;DHT22;29398;45.328;5.558;2022-12-07T01:25:35;4.20;99.90
7738;DHT22;29398;45.328;5.558;2022-12-07T01:26:36;4.20;99.90
7738;DHT22;29398;45.328;5.558;2022-12-07T01:27:38;4.30;99.90
7738;DHT22;29398;45.328;5.558;2022-12-07T01:28:39;4.20;99.90
7738;DHT22;29398;45.328;5.558;2022-12-07T01:29:41;4.20;99.90
7738;DHT22;29398;45.328;5.558;2022-12-07T01:30:43;4.20;99.90
7738;DHT22;29398;45.328;5.558;2022-12-07T01:31:45;4.20;99.90
7738;DHT22;29398;45.328;5.558;2022-12-07T01:32:49;4.20;99.90
7738;DHT22;29398;45.328;5.558;2022-12-07T01:33:52;4.30;99.90
7738;DHT22;29398;45.328;5.558;2022-12-07T01:34:54;4.30;99.90
7738;DHT22;29398;45.328;5.558;2022-12-07T01:36:01;4.30;99.90
7738;DHT22;29398;45.328;5.558;2022-12-07T01:37:02;4.30;99.90
7738;DHT22;29398;45.328;5.558;2022-12-07T01:38:04;4.30;99.90
7738;DHT22;29398;45.328;5.558;2022-12-07T01:39:08;4.30;99.90
7738;DHT22;29398;45.328;5.558;2022-12-07T01:40:11;4.30;99.90
7738;DHT22;29398;45.328;5.558;2022-12-07T01:41:13;4.20;99.90
7738;DHT22;29398;45.328;5.558;2022-12-07T01:42:16;4.20;99.90
7738;DHT22;29398;45.328;5.558;2022-12-07T01:43:24;5.40;99.90
7738;DHT22;29398;45.328;5.558;2022-12-07T01:44:28;4.10;99.90
7738;DHT22;29398;45.328;5.558;2022-12-07T01:45:38;4.10;99.90
7738;DHT22;29398;45.328;5.558;2022-12-07T01:46:41;4.20;99.90
7738;DHT22;29398;45.328;5.558;2022-12-07T01:47:46;4.20;99.90
7738;DHT22;29398;45.328;5.558;2022-12-07T01:48:48;4.20;99.90
7738;DHT22;29398;45.328;5.558;2022-12-07T01:49:50;4.30;99.90
7738;DHT22;29398;45.328;5.558;2022-12-07T01:50:52;4.30;99.90
7738;DHT22;29398;45.328;5.558;2022-12-07T01:52:01;4.30;99.90
7738;DHT22;29398;45.328;5.558;2022-12-07T01:53:08;4.30;99.90
7738;DHT22;29398;45.328;5.558;2022-12-07T01:54:13;4.40;99.90
7738;DHT22;29398;45.328;5.558;2022-12-07T01:55:16;4.40;99.90
7738;DHT22;29398;45.328;5.558;2022-12-07T01:56:23;4.40;99.90
7738;DHT22;29398;45.328;5.558;2022-12-07T01:57:27;4.40;99.90
7738;DHT22;29398;45.328;5.558;2022-12-07T01:58:28;4.40;99.90
7738;DHT22;29398;45.328;5.558;2022-12-07T01:59:30;4.50;99.90
7738;DHT22;29398;45.328;5.558;2022-12-07T02:00:32;4.50;99.90
7738;DHT22;29398;45.328;5.558;2022-12-07T02:01:34;4.50;99.90
7738;DHT22;29398;45.328;5.558;2022-12-07T02:02:39;4.50;99.90
7738;DHT22;29398;45.328;5.558;2022-12-07T02:03:45;4.50;99.90
7738;DHT22;29398;45.328;5.558;2022-12-07T02:04:46;4.50;99.90
7738;DHT22;29398;45.328;5.558;2022-12-07T02:05:49;4.50;99.90
7738;DHT22;29398;45.328;5.558;2022-12-07T02:06:51;4.50;99.90
7738;DHT22;29398;45.328;5.558;2022-12-07T02:07:55;4.50;99.90
7738;DHT22;29398;45.328;5.558;2022-12-07T02:08:57;4.60;99.90
7738;DHT22;29398;45.328;5.558;2022-12-07T02:10:13;4.60;99.90
7738;DHT22;29398;45.328;5.558;2022-12-07T02:11:15;4.60;99.90
7738;DHT22;29398;45.328;5.558;2022-12-07T02:12:18;4.60;99.90
7738;DHT22;29398;45.328;5.558;2022-12-07T02:13:22;4.60;99.90
7738;DHT22;29398;45.328;5.558;2022-12-07T02:14:25;4.60;99.90
7738;DHT22;29398;45.328;5.558;2022-12-07T02:15:34;4.60;99.90
7738;DHT22;29398;45.328;5.558;2022-12-07T02:16:46;4.60;99.90
7738;DHT22;29398;45.328;5.558;2022-12-07T02:17:54;4.60;99.90
7738;DHT22;29398;45.328;5.558;2022-12-07T02:19:01;4.60;99.90
7738;DHT22;29398;45.328;5.558;2022-12-07T02:20:21;4.60;99.90
7738;DHT22;29398;45.328;5.558;2022-12-07T02:21:35;4.60;99.90
7738;DHT22;29398;45.328;5.558;2022-12-07T02:24:38;4.60;99.90
7738;DHT22;29398;45.328;5.558;2022-12-07T02:27:37;4.50;99.90
7738;DHT22;29398;45.328;5.558;2022-12-07T02:28:55;4.50;99.90
7738;DHT22;29398;45.328;5.558;2022-12-07T02:30:02;4.40;99.90
7738;DHT22;29398;45.328;5.558;2022-12-07T02:31:11;4.40;99.90
7738;DHT22;29398;45.328;5.558;2022-12-07T02:32:16;4.40;99.90
7738;DHT22;29398;45.328;5.558;2022-12-07T02:33:26;4.40;99.90
7738;DHT22;29398;45.328;5.558;2022-12-07T02:34:37;4.40;99.90
7738;DHT22;29398;45.328;5.558;2022-12-07T02:35:44;4.40;99.90
7738;DHT22;29398;45.328;5.558;2022-12-07T02:36:52;4.40;99.90
7738;DHT22;29398;45.328;5.558;2022-12-07T02:38:01;4.40;99.90
7738;DHT22;29398;45.328;5.558;2022-12-07T02:39:08;4.50;99.90
7738;DHT22;29398;45.328;5.558;2022-12-07T02:40:16;4.50;99.90
7738;DHT22;29398;45.328;5.558;2022-12-07T02:41:23;4.50;99.90
7738;DHT22;29398;45.328;5.558;2022-12-07T02:42:32;4.50;99.90
7738;DHT22;29398;45.328;5.558;2022-12-07T02:43:38;4.50;99.90
7738;DHT22;29398;45.328;5.558;2022-12-07T02:44:44;4.50;99.90
7738;DHT22;29398;45.328;5.558;2022-12-07T02:45:48;4.50;99.90
7738;DHT22;29398;45.328;5.558;2022-12-07T02:46:53;4.50;99.90
7738;DHT22;29398;45.328;5.558;2022-12-07T02:47:58;4.50;99.90
7738;DHT22;29398;45.328;5.558;2022-12-07T02:49:00;4.50;99.90
7738;DHT22;29398;45.328;5.558;2022-12-07T02:50:05;4.50;99.90
7738;DHT22;29398;45.328;5.558;2022-12-07T02:51:07;4.50;99.90
7738;DHT22;29398;45.328;5.558;2022-12-07T02:52:09;4.50;99.90
7738;DHT22;29398;45.328;5.558;2022-12-07T02:53:28;4.50;99.90
7738;DHT22;29398;45.328;5.558;2022-12-07T02:54:30;4.50;99.90
7738;DHT22;29398;45.328;5.558;2022-12-07T02:55:36;4.50;99.90
7738;DHT22;29398;45.328;5.558;2022-12-07T02:56:44;4.50;99.90
7738;DHT22;29398;45.328;5.558;2022-12-07T02:57:56;4.50;99.90
7738;DHT22;29398;45.328;5.558;2022-12-07T02:59:07;4.50;99.90
7738;DHT22;29398;45.328;5.558;2022-12-07T03:00:16;4.50;99.90
7738;DHT22;29398;45.328;5.558;2022-12-07T03:01:28;4.50;99.90
7738;DHT22;29398;45.328;5.558;2022-12-07T03:02:38;4.50;99.90
7738;DHT22;29398;45.328;5.558;2022-12-07T03:03:46;4.50;99.90
7738;DHT22;29398;45.328;5.558;2022-12-07T03:04:56;4.50;99.90
7738;DHT22;29398;45.328;5.558;2022-12-07T03:06:09;4.50;99.90
7738;DHT22;29398;45.328;5.558;2022-12-07T03:07:18;4.50;99.90
7738;DHT22;29398;45.328;5.558;2022-12-07T03:08:29;4.50;99.90
7738;DHT22;29398;45.328;5.558;2022-12-07T03:09:37;4.40;99.90
7738;DHT22;29398;45.328;5.558;2022-12-07T03:10:51;4.40;99.90
7738;DHT22;29398;45.328;5.558;2022-12-07T03:12:01;4.30;99.90
7738;DHT22;29398;45.328;5.558;2022-12-07T03:13:11;4.30;99.90
7738;DHT22;29398;45.328;5.558;2022-12-07T03:14:17;4.30;99.90
7738;DHT22;29398;45.328;5.558;2022-12-07T03:15:26;4.30;99.90
7738;DHT22;29398;45.328;5.558;2022-12-07T03:16:33;4.30;99.90
7738;DHT22;29398;45.328;5.558;2022-12-07T03:17:39;4.20;99.90
7738;DHT22;29398;45.328;5.558;2022-12-07T03:18:45;4.30;99.90
7738;DHT22;29398;45.328;5.558;2022-12-07T03:19:49;4.30;99.90
7738;DHT22;29398;45.328;5.558;2022-12-07T03:20:55;4.30;99.90
7738;DHT22;29398;45.328;5.558;2022-12-07T03:22:01;4.30;99.90
7738;DHT22;29398;45.328;5.558;2022-12-07T03:23:04;4.30;99.90
7738;DHT22;29398;45.328;5.558;2022-12-07T03:24:11;4.40;99.90
7738;DHT22;29398;45.328;5.558;2022-12-07T03:25:15;4.40;99.90
7738;DHT22;29398;45.328;5.558;2022-12-07T03:26:19;4.40;99.90
7738;DHT22;29398;45.328;5.558;2022-12-07T03:27:24;4.50;99.90
7738;DHT22;29398;45.328;5.558;2022-12-07T03:28:31;4.50;99.90
7738;DHT22;29398;45.328;5.558;2022-12-07T03:29:35;4.50;99.90
7738;DHT22;29398;45.328;5.558;2022-12-07T03:30:45;4.50;99.90
7738;DHT22;29398;45.328;5.558;2022-12-07T03:31:52;4.50;99.90
7738;DHT22;29398;45.328;5.558;2022-12-07T03:32:59;4.50;99.90
7738;DHT22;29398;45.328;5.558;2022-12-07T03:34:05;4.40;99.90
7738;DHT22;29398;45.328;5.558;2022-12-07T03:35:13;4.40;99.90
7738;DHT22;29398;45.328;5.558;2022-12-07T03:36:21;4.40;99.90
7738;DHT22;29398;45.328;5.558;2022-12-07T03:37:31;4.40;99.90
7738;DHT22;29398;45.328;5.558;2022-12-07T03:38:38;4.40;99.90
7738;DHT22;29398;45.328;5.558;2022-12-07T03:39:49;4.40;99.90
7738;DHT22;29398;45.328;5.558;2022-12-07T03:40:57;4.40;99.90
7738;DHT22;29398;45.328;5.558;2022-12-07T03:42:03;4.40;99.90
7738;DHT22;29398;45.328;5.558;2022-12-07T03:43:05;4.40;99.90
7738;DHT22;29398;45.328;5.558;2022-12-07T03:44:07;4.40;99.90
7738;DHT22;29398;45.328;5.558;2022-12-07T03:45:09;4.40;99.90
7738;DHT22;29398;45.328;5.558;2022-12-07T03:46:19;4.40;99.90
7738;DHT22;29398;45.328;5.558;2022-12-07T03:47:27;4.40;99.90
7738;DHT22;29398;45.328;5.558;2022-12-07T03:48:34;4.40;99.90
7738;DHT22;29398;45.328;5.558;2022-12-07T03:49:40;4.40;99.90
7738;DHT22;29398;45.328;5.558;2022-12-07T03:50:50;4.40;99.90
7738;DHT22;29398;45.328;5.558;2022-12-07T03:51:56;4.40;99.90
7738;DHT22;29398;45.328;5.558;2022-12-07T03:53:05;4.50;99.90
7738;DHT22;29398;45.328;5.558;2022-12-07T03:54:13;4.50;99.90
7738;DHT22;29398;45.328;5.558;2022-12-07T03:55:20;4.50;99.90
7738;DHT22;29398;45.328;5.558;2022-12-07T03:56:23;4.50;99.90
7738;DHT22;29398;45.328;5.558;2022-12-07T03:57:27;4.50;99.90
7738;DHT22;29398;45.328;5.558;2022-12-07T03:58:30;4.50;99.90
7738;DHT22;29398;45.328;5.558;2022-12-07T03:59:33;4.50;99.90
7738;DHT22;29398;45.328;5.558;2022-12-07T04:00:36;4.50;99.90
7738;DHT22;29398;45.328;5.558;2022-12-07T04:01:41;4.50;99.90
7738;DHT22;29398;45.328;5.558;2022-12-07T04:02:44;4.50;99.90
7738;DHT22;29398;45.328;5.558;2022-12-07T04:03:45;4.50;99.90
7738;DHT22;29398;45.328;5.558;2022-12-07T04:04:47;4.50;99.90
7738;DHT22;29398;45.328;5.558;2022-12-07T04:05:48;4.50;99.90
7738;DHT22;29398;45.328;5.558;2022-12-07T04:06:51;4.50;99.90
7738;DHT22;29398;45.328;5.558;2022-12-07T04:07:52;4.60;99.90
7738;DHT22;29398;45.328;5.558;2022-12-07T04:08:54;4.60;99.90
7738;DHT22;29398;45.328;5.558;2022-12-07T04:09:55;4.60;99.90
7738;DHT22;29398;45.328;5.558;2022-12-07T04:10:58;4.50;99.90
7738;DHT22;29398;45.328;5.558;2022-12-07T04:11:59;4.50;99.90
7738;DHT22;29398;45.328;5.558;2022-12-07T04:13:01;4.50;99.90
7738;DHT22;29398;45.328;5.558;2022-12-07T04:14:02;4.50;99.90
7738;DHT22;29398;45.328;5.558;2022-12-07T04:15:20;4.50;99.90
7738;DHT22;29398;45.328;5.558;2022-12-07T04:16:21;4.50;99.90
7738;DHT22;29398;45.328;5.558;2022-12-07T04:17:25;4.50;99.90
7738;DHT22;29398;45.328;5.558;2022-12-07T04:18:27;4.50;99.90
7738;DHT22;29398;45.328;5.558;2022-12-07T04:19:29;4.50;99.90
7738;DHT22;29398;45.328;5.558;2022-12-07T04:20:32;4.40;99.90
7738;DHT22;29398;45.328;5.558;2022-12-07T04:21:33;4.40;99.90
7738;DHT22;29398;45.328;5.558;2022-12-07T04:22:35;4.40;99.90
7738;DHT22;29398;45.328;5.558;2022-12-07T04:23:36;4.40;99.90
7738;DHT22;29398;45.328;5.558;2022-12-07T04:24:38;4.40;99.90
7738;DHT22;29398;45.328;5.558;2022-12-07T04:25:40;4.30;99.90
7738;DHT22;29398;45.328;5.558;2022-12-07T04:26:44;4.30;99.90
7738;DHT22;29398;45.328;5.558;2022-12-07T04:27:46;4.30;99.90
7738;DHT22;29398;45.328;5.558;2022-12-07T04:28:48;4.30;99.90
7738;DHT22;29398;45.328;5.558;2022-12-07T04:29:49;4.40;99.90
7738;DHT22;29398;45.328;5.558;2022-12-07T04:30:52;4.40;99.90
7738;DHT22;29398;45.328;5.558;2022-12-07T04:31:53;4.40;99.90
7738;DHT22;29398;45.328;5.558;2022-12-07T04:32:57;4.40;99.90
7738;DHT22;29398;45.328;5.558;2022-12-07T04:33:58;4.40;99.90
7738;DHT22;29398;45.328;5.558;2022-12-07T04:35:00;4.40;99.90
7738;DHT22;29398;45.328;5.558;2022-12-07T04:36:01;4.50;99.90
7738;DHT22;29398;45.328;5.558;2022-12-07T04:37:03;4.50;99.90
7738;DHT22;29398;45.328;5.558;2022-12-07T04:38:04;4.50;99.90
7738;DHT22;29398;45.328;5.558;2022-12-07T04:39:25;4.50;99.90
7738;DHT22;29398;45.328;5.558;2022-12-07T04:40:26;4.50;99.90
7738;DHT22;29398;45.328;5.558;2022-12-07T04:41:28;4.60;99.90
7738;DHT22;29398;45.328;5.558;2022-12-07T04:42:30;4.60;99.90
7738;DHT22;29398;45.328;5.558;2022-12-07T04:43:32;4.60;99.90
7738;DHT22;29398;45.328;5.558;2022-12-07T04:44:34;4.60;99.90
7738;DHT22;29398;45.328;5.558;2022-12-07T04:45:36;4.60;99.90
7738;DHT22;29398;45.328;5.558;2022-12-07T04:46:37;4.60;99.90
7738;DHT22;29398;45.328;5.558;2022-12-07T04:47:39;4.60;99.90
7738;DHT22;29398;45.328;5.558;2022-12-07T04:48:42;4.60;99.90
7738;DHT22;29398;45.328;5.558;2022-12-07T04:49:44;4.60;99.90
7738;DHT22;29398;45.328;5.558;2022-12-07T04:50:48;4.60;99.90
7738;DHT22;29398;45.328;5.558;2022-12-07T04:51:51;4.60;99.90
7738;DHT22;29398;45.328;5.558;2022-12-07T04:52:53;4.60;99.90
7738;DHT22;29398;45.328;5.558;2022-12-07T04:53:55;4.50;99.90
7738;DHT22;29398;45.328;5.558;2022-12-07T04:54:57;4.60;99.90
7738;DHT22;29398;45.328;5.558;2022-12-07T04:55:59;4.50;99.90
7738;DHT22;29398;45.328;5.558;2022-12-07T04:57:01;4.60;99.90
7738;DHT22;29398;45.328;5.558;2022-12-07T04:58:03;4.60;99.90
7738;DHT22;29398;45.328;5.558;2022-12-07T04:59:05;4.60;99.90
7738;DHT22;29398;45.328;5.558;2022-12-07T05:00:08;4.60;99.90
7738;DHT22;29398;45.328;5.558;2022-12-07T05:01:09;4.60;99.90
7738;DHT22;29398;45.328;5.558;2022-12-07T05:02:12;4.70;99.90
7738;DHT22;29398;45.328;5.558;2022-12-07T05:03:13;4.70;99.90
7738;DHT22;29398;45.328;5.558;2022-12-07T05:04:17;4.60;99.90
7738;DHT22;29398;45.328;5.558;2022-12-07T05:05:18;4.70;99.90
7738;DHT22;29398;45.328;5.558;2022-12-07T05:06:21;4.70;99.90
7738;DHT22;29398;45.328;5.558;2022-12-07T05:07:22;4.70;99.90
7738;DHT22;29398;45.328;5.558;2022-12-07T05:08:24;4.70;99.90
7738;DHT22;29398;45.328;5.558;2022-12-07T05:09:25;4.70;99.90
7738;DHT22;29398;45.328;5.558;2022-12-07T05:10:27;4.60;99.90
7738;DHT22;29398;45.328;5.558;2022-12-07T05:11:28;4.60;99.90
7738;DHT22;29398;45.328;5.558;2022-12-07T05:12:39;4.60;99.90
7738;DHT22;29398;45.328;5.558;2022-12-07T05:13:41;4.60;99.90
7738;DHT22;29398;45.328;5.558;2022-12-07T05:14:43;4.60;99.90
7738;DHT22;29398;45.328;5.558;2022-12-07T05:15:46;4.60;99.90
7738;DHT22;29398;45.328;5.558;2022-12-07T05:16:49;4.50;99.90
7738;DHT22;29398;45.328;5.558;2022-12-07T05:17:52;4.50;99.90
7738;DHT22;29398;45.328;5.558;2022-12-07T05:18:53;4.50;99.90
7738;DHT22;29398;45.328;5.558;2022-12-07T05:19:57;4.50;99.90
7738;DHT22;29398;45.328;5.558;2022-12-07T05:20:59;4.50;99.90
7738;DHT22;29398;45.328;5.558;2022-12-07T05:22:00;4.50;99.90
7738;DHT22;29398;45.328;5.558;2022-12-07T05:23:02;4.50;99.90
7738;DHT22;29398;45.328;5.558;2022-12-07T05:24:04;4.50;99.90
7738;DHT22;29398;45.328;5.558;2022-12-07T05:25:08;4.50;99.90
7738;DHT22;29398;45.328;5.558;2022-12-07T05:26:09;4.50;99.90
7738;DHT22;29398;45.328;5.558;2022-12-07T05:27:11;4.50;99.90
7738;DHT22;29398;45.328;5.558;2022-12-07T05:28:13;4.50;99.90
7738;DHT22;29398;45.328;5.558;2022-12-07T05:29:16;4.60;99.90
7738;DHT22;29398;45.328;5.558;2022-12-07T05:30:18;4.60;99.90
7738;DHT22;29398;45.328;5.558;2022-12-07T05:31:20;4.60;99.90
7738;DHT22;29398;45.328;5.558;2022-12-07T05:32:22;4.60;99.90
7738;DHT22;29398;45.328;5.558;2022-12-07T05:33:23;4.60;99.90
7738;DHT22;29398;45.328;5.558;2022-12-07T05:34:26;4.60;99.90
7738;DHT22;29398;45.328;5.558;2022-12-07T05:35:28;4.60;99.90
7738;DHT22;29398;45.328;5.558;2022-12-07T05:36:31;4.60;99.90
7738;DHT22;29398;45.328;5.558;2022-12-07T05:37:32;4.60;99.90
7738;DHT22;29398;45.328;5.558;2022-12-07T05:38:34;4.60;99.90
7738;DHT22;29398;45.328;5.558;2022-12-07T05:39:35;4.60;99.90
7738;DHT22;29398;45.328;5.558;2022-12-07T05:40:38;4.60;99.90
7738;DHT22;29398;45.328;5.558;2022-12-07T05:41:39;4.60;99.90
7738;DHT22;29398;45.328;5.558;2022-12-07T05:42:59;4.60;99.90
7738;DHT22;29398;45.328;5.558;2022-12-07T05:44:01;4.60;99.90
7738;DHT22;29398;45.328;5.558;2022-12-07T05:45:03;4.60;99.90
7738;DHT22;29398;45.328;5.558;2022-12-07T05:46:05;4.60;99.90
7738;DHT22;29398;45.328;5.558;2022-12-07T05:47:07;4.70;99.90
7738;DHT22;29398;45.328;5.558;2022-12-07T05:48:09;4.70;99.90
7738;DHT22;29398;45.328;5.558;2022-12-07T05:49:10;4.70;99.90
7738;DHT22;29398;45.328;5.558;2022-12-07T05:50:12;4.70;99.90
7738;DHT22;29398;45.328;5.558;2022-12-07T05:51:14;4.70;99.90
7738;DHT22;29398;45.328;5.558;2022-12-07T05:52:17;4.70;99.90
7738;DHT22;29398;45.328;5.558;2022-12-07T05:53:19;4.70;99.90
7738;DHT22;29398;45.328;5.558;2022-12-07T05:54:21;4.70;99.90
7738;DHT22;29398;45.328;5.558;2022-12-07T05:55:22;4.70;99.90
7738;DHT22;29398;45.328;5.558;2022-12-07T05:56:24;4.70;99.90
7738;DHT22;29398;45.328;5.558;2022-12-07T05:57:27;4.70;99.90
7738;DHT22;29398;45.328;5.558;2022-12-07T05:58:29;4.70;99.90
7738;DHT22;29398;45.328;5.558;2022-12-07T05:59:48;4.70;99.90
7738;DHT22;29398;45.328;5.558;2022-12-07T06:00:49;4.70;99.90
7738;DHT22;29398;45.328;5.558;2022-12-07T06:01:51;4.60;99.90
7738;DHT22;29398;45.328;5.558;2022-12-07T06:02:53;4.60;99.90
7738;DHT22;29398;45.328;5.558;2022-12-07T06:03:55;4.60;99.90
7738;DHT22;29398;45.328;5.558;2022-12-07T06:04:57;4.60;99.90
7738;DHT22;29398;45.328;5.558;2022-12-07T06:05:59;4.60;99.90
7738;DHT22;29398;45.328;5.558;2022-12-07T06:07:01;4.60;99.90
7738;DHT22;29398;45.328;5.558;2022-12-07T06:08:04;4.60;99.90
7738;DHT22;29398;45.328;5.558;2022-12-07T06:09:05;4.70;99.90
7738;DHT22;29398;45.328;5.558;2022-12-07T06:10:08;4.70;99.90
7738;DHT22;29398;45.328;5.558;2022-12-07T06:11:10;4.70;99.90
7738;DHT22;29398;45.328;5.558;2022-12-07T06:12:29;4.70;99.90
7738;DHT22;29398;45.328;5.558;2022-12-07T06:13:39;4.70;99.90
7738;DHT22;29398;45.328;5.558;2022-12-07T06:14:41;4.70;99.90
7738;DHT22;29398;45.328;5.558;2022-12-07T06:15:42;4.70;99.90
7738;DHT22;29398;45.328;5.558;2022-12-07T06:16:45;4.70;99.90
7738;DHT22;29398;45.328;5.558;2022-12-07T06:17:47;4.70;99.90
7738;DHT22;29398;45.328;5.558;2022-12-07T06:18:49;4.70;99.90
7738;DHT22;29398;45.328;5.558;2022-12-07T06:19:50;4.70;99.90
7738;DHT22;29398;45.328;5.558;2022-12-07T06:20:52;4.70;99.90
7738;DHT22;29398;45.328;5.558;2022-12-07T06:21:54;4.70;99.90
7738;DHT22;29398;45.328;5.558;2022-12-07T06:22:57;4.70;99.90
7738;DHT22;29398;45.328;5.558;2022-12-07T06:23:59;4.60;99.90
7738;DHT22;29398;45.328;5.558;2022-12-07T06:25:01;4.60;99.90
7738;DHT22;29398;45.328;5.558;2022-12-07T06:26:04;4.60;99.90
7738;DHT22;29398;45.328;5.558;2022-12-07T06:27:05;4.60;99.90
7738;DHT22;29398;45.328;5.558;2022-12-07T06:28:07;4.60;99.90
7738;DHT22;29398;45.328;5.558;2022-12-07T06:29:09;4.70;99.90
7738;DHT22;29398;45.328;5.558;2022-12-07T06:30:12;4.60;99.90
7738;DHT22;29398;45.328;5.558;2022-12-07T06:31:13;4.70;99.90
7738;DHT22;29398;45.328;5.558;2022-12-07T06:32:15;4.70;99.90
7738;DHT22;29398;45.328;5.558;2022-12-07T06:33:17;4.60;99.90
7738;DHT22;29398;45.328;5.558;2022-12-07T06:34:20;5.60;99.90
7738;DHT22;29398;45.328;5.558;2022-12-07T06:35:23;4.60;99.90
7738;DHT22;29398;45.328;5.558;2022-12-07T06:36:24;4.70;99.90
7738;DHT22;29398;45.328;5.558;2022-12-07T06:37:26;4.60;99.90
7738;DHT22;29398;45.328;5.558;2022-12-07T06:38:30;4.60;99.90
7738;DHT22;29398;45.328;5.558;2022-12-07T06:39:31;4.60;99.90
7738;DHT22;29398;45.328;5.558;2022-12-07T06:40:33;4.60;99.90
7738;DHT22;29398;45.328;5.558;2022-12-07T06:41:34;4.60;99.90
7738;DHT22;29398;45.328;5.558;2022-12-07T06:42:36;4.60;99.90
7738;DHT22;29398;45.328;5.558;2022-12-07T06:43:37;4.60;99.90
7738;DHT22;29398;45.328;5.558;2022-12-07T06:44:40;4.70;99.90
7738;DHT22;29398;45.328;5.558;2022-12-07T06:45:42;4.70;99.90
7738;DHT22;29398;45.328;5.558;2022-12-07T06:46:43;4.70;99.90
7738;DHT22;29398;45.328;5.558;2022-12-07T06:47:46;4.70;99.90
7738;DHT22;29398;45.328;5.558;2022-12-07T06:48:47;4.70;99.90
7738;DHT22;29398;45.328;5.558;2022-12-07T06:49:49;4.70;99.90
7738;DHT22;29398;45.328;5.558;2022-12-07T06:50:51;4.70;99.90
7738;DHT22;29398;45.328;5.558;2022-12-07T06:51:52;4.70;99.90
7738;DHT22;29398;45.328;5.558;2022-12-07T06:52:55;4.70;99.90
7738;DHT22;29398;45.328;5.558;2022-12-07T06:53:57;4.70;99.90
7738;DHT22;29398;45.328;5.558;2022-12-07T06:54:59;4.70;99.90
7738;DHT22;29398;45.328;5.558;2022-12-07T06:56:01;4.70;99.90
7738;DHT22;29398;45.328;5.558;2022-12-07T06:57:03;4.70;99.90
7738;DHT22;29398;45.328;5.558;2022-12-07T06:58:05;4.70;99.90
7738;DHT22;29398;45.328;5.558;2022-12-07T06:59:06;4.70;99.90
7738;DHT22;29398;45.328;5.558;2022-12-07T07:00:10;4.70;99.90
7738;DHT22;29398;45.328;5.558;2022-12-07T07:01:12;4.70;99.90